Terminal Aerodrome Forecast
Issued by NWS

Current Version | Previous Version | Text Only | Print | Product List | Glossary On
Versions: 1 2 3 4 5 6 7 8 9 10 11 12 13 14 15 16 17 18 19 20 21 22 23 24 25 26 27 28 29 30 31 32 33 34 35 36 37 38 39 40 41 42 43 44 45 46 47 48 49 50
000
FTAK31 PANC 031126
TAFADU
TAF
PADU 031126Z 0312/0412 VRB05KT P6SM BKN025
      TEMPO 0312/0314 SCT025
     FM031800 10014G22KT P6SM VCSH BKN025 OVC180
     FM040000 11020G30KT P6SM VCSH BKN025 OVC150
     FM040600 12020G30KT P6SM -SHRA BKN018 OVC025=

USA.gov is the U.S. government's official web portal to all federal, state and local government web resources and services.